Tomb, Pennsylvania
Current Conditions -  °F | °C
As of 7:54 AM on Tuesday 21 Oct 2014 (Local Time) from KIPT Reporting Station
Overcast Overcast  
Wind Chill: 48°   Ceiling: 4300
Heat Index: 48°   Visibility: 10mi
Dew Point: 46°   Wind: 0mph
Humidity: 93%   Direction: NA
Pressure: 29.85"   Gusts: NA
Location:  41.1288°N, 77.1989°W
Report Text: KIPT 211154Z 00000KT 10SM BKN043 BKN060 OVC075 09/08 A2985 RMK AO2 RAE1059 SLP108 P0000 60002 70002 T00890078 10100 20089 53006
Loading
Personal Weather Stations






























Interactive Weather Map
Tropical Storm Tracking
New forecast layout! Learn more

10-Day Weather Forecast

Advertisements
Track Severe Weather on mobile